Time;durP1;ratioP1;P1;durP2;ratioP2;P2;SDS_P1;SDS_P2;PMS_P1;PMS_P2;Temp;Humidity;BMP_temperature;BMP_pressure;BME280_temperature;BME280_humidity;BME280_pressure;Samples;Min_cycle;Max_cycle;Signal;HPM_P1;HPM_P2
2021/11/12 00:17:10;;;;;;;33.17;23.45;;;;;;;5.43;78.03;100855.94;10326608;28;20062;-72
2021/11/12 00:22:12;;;;;;;31.75;22.95;;;;;;;5.55;77.19;100844.75;10308687;28;20108;-73
2021/11/12 00:27:15;;;;;;;36.15;24.40;;;;;;;5.45;77.87;100839.09;10305847;28;20122;-71
2021/11/12 00:37:41;;;;;;;36.15;24.23;;;;;;;5.51;77.98;100832.66;10367708;28;20057;-72
2021/11/12 00:43:05;;;;;;;32.70;23.30;;;;;;;5.54;77.93;100836.91;10380723;28;20098;-71
2021/11/12 00:58:16;;;;;;;32.73;24.60;;;;;;;5.53;78.02;100841.34;10330671;28;20050;-73
2021/11/12 01:03:18;;;;;;;29.98;21.60;;;;;;;5.49;78.05;100835.38;10332578;28;20421;-71
2021/11/12 01:08:20;;;;;;;31.10;22.80;;;;;;;5.51;78.11;100826.50;10313424;28;20043;-72
2021/11/12 01:13:23;;;;;;;29.13;22.05;;;;;;;5.55;78.05;100834.19;10317517;28;20062;-72
2021/11/12 01:18:25;;;;;;;31.67;22.65;;;;;;;5.51;78.53;100837.94;10311191;28;20114;-71
2021/11/12 01:23:26;;;;;;;33.65;22.85;;;;;;;5.46;78.38;100835.53;10313706;28;20245;-73
2021/11/12 01:28:28;;;;;;;32.58;21.95;;;;;;;5.45;79.06;100827.66;10313936;28;20507;-73
2021/11/12 01:33:30;;;;;;;29.08;20.10;;;;;;;5.46;78.78;100824.09;10313782;28;20141;-70
2021/11/12 01:38:32;;;;;;;23.45;16.25;;;;;;;5.47;78.34;100823.19;10312509;28;20046;-71
2021/11/12 01:43:45;;;;;;;20.33;15.57;;;;;;;5.44;78.17;100815.41;10324154;28;20069;-71
2021/11/12 01:53:56;;;;;;;24.60;17.80;;;;;;;5.47;78.07;100810.81;10311724;28;20141;-73
2021/11/12 02:04:09;;;;;;;24.67;17.58;;;;;;;5.46;78.06;100811.78;10310961;28;20062;-73
2021/11/12 02:09:23;;;;;;;19.73;14.98;;;;;;;5.53;77.52;100820.22;10302699;28;20062;-72
2021/11/12 02:14:25;;;;;;;17.00;12.32;;;;;;;5.52;77.13;100809.75;10310479;28;20070;-73
2021/11/12 02:19:27;;;;;;;17.42;13.25;;;;;;;5.61;76.97;100807.47;10310998;28;20078;-72
2021/11/12 02:24:29;;;;;;;14.52;12.25;;;;;;;5.56;76.98;100808.66;10306945;28;20470;-73
2021/11/12 02:29:32;;;;;;;17.17;14.15;;;;;;;5.45;76.47;100810.06;10310505;28;20135;-71
2021/11/12 02:34:33;;;;;;;15.35;11.93;;;;;;;5.46;76.17;100814.41;10310484;28;20125;-72
2021/11/12 02:39:35;;;;;;;15.32;11.93;;;;;;;5.44;76.26;100810.97;10309280;28;20568;-72
2021/11/12 02:44:37;;;;;;;16.45;12.52;;;;;;;5.39;76.14;100806.84;10309130;28;20100;-72
2021/11/12 02:49:39;;;;;;;15.68;11.55;;;;;;;5.43;76.00;100809.25;10309030;28;20042;-73
2021/11/12 02:54:41;;;;;;;15.02;11.38;;;;;;;5.37;75.91;100806.94;10308294;28;20042;-72
2021/11/12 02:59:43;;;;;;;16.13;12.10;;;;;;;5.42;76.02;100804.06;10307137;28;20129;-73
2021/11/12 03:04:45;;;;;;;14.50;12.07;;;;;;;5.48;75.90;100803.78;10308208;28;20073;-71
2021/11/12 03:09:46;;;;;;;17.33;13.48;;;;;;;5.48;75.76;100801.97;10308115;28;20054;-71
2021/11/12 03:14:51;;;;;;;17.10;13.10;;;;;;;5.49;76.41;100797.53;10308363;28;20113;-69
2021/11/12 03:19:53;;;;;;;;;;;;;;;5.39;75.77;100798.94;10323511;28;20133;-73
2021/11/12 03:24:59;;;;;;;16.80;12.90;;;;;;;5.30;76.07;100801.13;10321880;28;19965;-72
2021/11/12 03:31:01;;;;;;;15.57;12.63;;;;;;;5.30;76.26;100790.56;10325862;28;20070;-71
2021/11/12 04:02:09;;;;;;;13.80;10.27;;;;;;;5.18;76.36;100788.53;10348969;28;20066;-70
2021/11/12 04:17:56;;;;;;;14.55;10.73;;;;;;;5.39;75.35;100772.53;10314552;28;20070;-71
2021/11/12 05:59:30;;;;;;;15.45;11.80;;;;;;;5.16;76.36;100698.00;10255858;28;20057;-71
2021/11/12 06:04:33;;;;;;;16.92;12.75;;;;;;;5.21;76.63;100698.63;10328018;28;20656;-71
2021/11/12 06:09:36;;;;;;;15.80;12.05;;;;;;;5.16;76.44;100690.09;10350075;28;20054;-71
2021/11/12 06:14:40;;;;;;;17.60;13.70;;;;;;;5.10;76.68;100683.34;10378699;28;20057;-72
2021/11/12 06:19:41;;;;;;;17.50;12.98;;;;;;;5.12;76.63;100688.56;10367520;28;20408;-73
2021/11/12 06:24:43;;;;;;;19.23;13.02;;;;;;;5.05;76.92;100688.00;10337891;28;20054;-74
2021/11/12 06:29:46;;;;;;;16.42;13.00;;;;;;;5.05;76.84;100681.88;10334626;28;20140;-71
2021/11/12 06:34:48;;;;;;;21.23;13.60;;;;;;;5.13;76.79;100682.31;10328218;28;20059;-71
2021/11/12 06:39:50;;;;;;;18.35;13.05;;;;;;;5.17;76.72;100669.84;10326338;28;20153;-71
2021/11/12 06:49:19;;;;;;;20.17;15.15;;;;;;;5.10;77.22;100671.94;10297585;28;20054;-68
2021/11/12 06:50:26;;;;;;;18.77;14.38;;;;;;;5.16;77.18;100679.53;10319492;28;20544;-70
2021/11/12 06:55:28;;;;;;;16.70;13.73;;;;;;;5.20;77.72;100670.53;10294911;28;20058;-72
2021/11/12 07:00:30;;;;;;;17.13;13.18;;;;;;;5.21;77.62;100674.88;10295053;28;20062;-72
2021/11/12 07:05:32;;;;;;;17.85;14.63;;;;;;;5.21;77.42;100672.25;10294751;28;20056;-69
2021/11/12 07:10:33;;;;;;;27.95;16.25;;;;;;;5.19;77.15;100678.53;10295618;28;20907;-71
2021/11/12 07:15:37;;;;;;;22.15;17.10;;;;;;;5.20;77.36;100681.09;10298694;28;20062;-70
2021/11/12 07:20:39;;;;;;;19.95;15.48;;;;;;;5.17;77.98;100694.44;10291161;28;20046;-73
2021/11/12 07:25:41;;;;;;;22.67;17.10;;;;;;;5.05;78.41;100695.91;10312067;28;20045;-72
2021/11/12 07:30:43;;;;;;;22.52;16.35;;;;;;;5.13;78.13;100690.25;10289251;28;20133;-74
2021/11/12 07:35:49;;;;;;;21.40;14.55;;;;;;;5.04;78.62;100701.25;10298488;28;20504;-72
2021/11/12 07:51:09;;;;;;;23.60;18.52;;;;;;;5.01;78.40;100693.50;10350310;28;20132;-68
2021/11/12 07:56:11;;;;;;;20.90;15.95;;;;;;;5.14;78.03;100707.78;10374666;28;20061;-71
2021/11/12 08:01:12;;;;;;;18.58;14.45;;;;;;;5.07;77.15;100699.31;10348072;28;20424;-71
2021/11/12 08:06:16;;;;;;;24.45;16.27;;;;;;;5.01;77.37;100698.78;10340887;28;20060;-69
2021/11/12 08:11:28;;;;;;;22.00;16.83;;;;;;;4.90;77.78;100686.97;10345693;28;20050;-72
2021/11/12 08:21:49;;;;;;;24.38;15.45;;;;;;;4.80;77.15;100675.19;10293637;28;20077;-70
2021/11/12 08:27:02;;;;;;;23.88;15.80;;;;;;;4.79;77.44;100670.84;10297209;28;20130;-70
2021/11/12 08:43:02;;;;;;;20.95;14.98;;;;;;;4.82;77.00;100678.59;10295680;28;20568;-71
2021/11/12 08:48:08;;;;;;;19.33;14.02;;;;;;;4.69;77.11;100673.06;10310547;28;20857;-70
2021/11/12 08:53:12;;;;;;;16.23;12.82;;;;;;;4.72;77.24;100664.16;10310695;28;20145;-70
2021/11/12 08:58:14;;;;;;;15.68;12.38;;;;;;;4.75;76.64;100653.47;10367002;28;20045;-70
2021/11/12 09:03:15;;;;;;;18.52;13.75;;;;;;;4.73;76.51;100660.59;10370288;28;20042;-70
2021/11/12 09:08:16;;;;;;;17.40;14.35;;;;;;;4.73;76.64;100658.81;10359734;28;20064;-68
2021/11/12 09:13:30;;;;;;;19.00;14.98;;;;;;;4.85;76.10;100661.75;10356093;28;20478;-70
2021/11/12 09:18:32;;;;;;;17.08;14.68;;;;;;;4.52;76.42;100668.63;10362738;23;20720;-70
2021/11/12 09:23:33;;;;;;;17.88;14.05;;;;;;;4.72;76.76;100669.44;10331910;28;20054;-66
2021/11/12 09:28:35;;;;;;;17.27;13.48;;;;;;;4.72;75.05;100657.09;10327331;28;20270;-66
2021/11/12 09:33:38;;;;;;;15.85;12.95;;;;;;;4.49;75.57;100650.34;10328041;28;20064;-65
2021/11/12 09:38:41;;;;;;;19.30;15.38;;;;;;;4.59;75.87;100632.25;10327365;28;20128;-65
2021/11/12 09:43:47;;;;;;;19.77;14.93;;;;;;;4.62;75.89;100628.63;10328895;28;20089;-65
2021/11/12 09:48:48;;;;;;;23.25;15.88;;;;;;;4.51;76.20;100640.56;10330487;28;20141;-64
2021/11/12 09:53:50;;;;;;;21.73;14.95;;;;;;;4.43;77.07;100638.28;10336575;28;20599;-65
2021/11/12 09:58:51;;;;;;;22.67;17.45;;;;;;;4.39;76.50;100649.06;10333166;28;20053;-65
2021/11/12 10:03:53;;;;;;;18.90;15.23;;;;;;;4.38;77.08;100639.44;10329240;28;20616;-65
2021/11/12 10:08:55;;;;;;;22.60;15.68;;;;;;;4.44;76.94;100641.78;10324052;28;20057;-66
2021/11/12 10:14:02;;;;;;;20.63;16.48;;;;;;;4.64;76.23;100618.84;10328671;28;20050;-65
2021/11/12 10:19:22;;;;;;;22.50;16.98;;;;;;;4.85;75.82;100607.22;10325698;28;20129;-65
2021/11/12 10:24:28;;;;;;;20.48;16.90;;;;;;;4.77;76.09;100604.13;10265236;28;20194;-67
2021/11/12 10:29:34;;;;;;;22.05;17.02;;;;;;;4.66;76.09;100598.53;10276250;28;20381;-65
2021/11/12 10:34:38;;;;;;;21.77;16.67;;;;;;;4.45;77.06;100582.84;10332770;28;20124;-66
2021/11/12 10:39:43;;;;;;;20.38;16.73;;;;;;;4.46;77.35;100576.66;10315566;28;20071;-65
2021/11/12 10:44:48;;;;;;;28.48;19.38;;;;;;;4.51;77.37;100582.56;10318855;28;20057;-65
2021/11/12 10:49:51;;;;;;;26.10;18.80;;;;;;;4.77;77.60;100572.47;10329758;28;20141;-64
2021/11/12 10:55:12;;;;;;;20.95;16.60;;;;;;;4.88;76.36;100562.22;10322134;28;20258;-69
2021/11/12 11:00:26;;;;;;;23.70;17.75;;;;;;;4.65;76.24;100555.47;10319757;28;20101;-66
2021/11/12 11:05:30;;;;;;;19.63;16.10;;;;;;;4.50;76.94;100543.09;10326017;28;20057;-65
2021/11/12 11:10:37;;;;;;;21.58;17.75;;;;;;;4.67;76.65;100534.31;10329328;28;21152;-65
2021/11/12 11:15:49;;;;;;;21.67;17.80;;;;;;;4.66;76.53;100515.00;10329196;28;20141;-66
2021/11/12 11:21:14;;;;;;;20.30;16.08;;;;;;;4.59;76.51;100498.66;10318845;28;20051;-65
2021/11/12 11:26:24;;;;;;;24.47;17.37;;;;;;;4.55;76.12;100486.56;10311414;28;20045;-65
2021/11/12 11:31:28;;;;;;;23.48;17.45;;;;;;;4.57;76.61;100497.88;10312457;28;20452;-65
2021/11/12 11:36:32;;;;;;;21.47;15.67;;;;;;;4.70;76.42;100497.22;10323178;28;20054;-65
2021/11/12 11:41:34;;;;;;;22.27;17.90;;;;;;;4.57;76.62;100500.50;10326487;28;20374;-66
2021/11/12 11:46:41;;;;;;;22.65;16.70;;;;;;;4.67;76.70;100495.63;10337759;28;20145;-66
2021/11/12 11:51:55;;;;;;;22.50;16.35;;;;;;;4.68;76.30;100501.75;10320577;28;20508;-66
2021/11/12 11:56:59;;;;;;;22.48;18.08;;;;;;;4.77;76.89;100499.50;10319368;28;20042;-65
2021/11/12 12:02:04;;;;;;;25.00;18.80;;;;;;;4.70;76.83;100484.03;10316526;28;20165;-65
2021/11/12 12:07:10;;;;;;;24.83;19.17;;;;;;;4.53;77.10;100496.31;10266835;28;20157;-65
2021/11/12 12:12:12;;;;;;;23.27;17.55;;;;;;;4.42;77.84;100496.03;10318058;28;20504;-65
2021/11/12 12:17:24;;;;;;;22.65;17.65;;;;;;;4.41;78.04;100475.84;10320585;28;20060;-65
2021/11/12 13:22:38;;;;;;;26.17;18.05;;;;;;;4.23;77.99;100449.53;10309196;28;20050;-66
2021/11/12 13:27:39;;;;;;;21.42;17.27;;;;;;;4.14;79.44;100460.50;10309035;28;20141;-67
2021/11/12 13:32:41;;;;;;;27.80;18.92;;;;;;;4.43;77.36;100448.50;10318361;28;20561;-65
2021/11/12 13:37:52;;;;;;;24.67;18.48;;;;;;;4.30;77.10;100446.59;10325126;28;20050;-67
2021/11/12 13:42:53;;;;;;;24.70;19.98;;;;;;;4.30;76.91;100447.44;10320741;28;20168;-67
2021/11/12 13:48:12;;;;;;;25.75;19.08;;;;;;;4.35;77.42;100447.19;10326770;28;20457;-67
2021/11/12 13:53:14;;;;;;;24.98;18.98;;;;;;;4.48;76.82;100432.44;10326364;28;20123;-67
2021/11/12 13:58:21;;;;;;;27.58;19.42;;;;;;;4.29;76.52;100436.97;10341936;28;20076;-66
2021/11/12 14:03:38;;;;;;;25.65;17.92;;;;;;;4.29;77.50;100423.78;10331079;28;20046;-66
2021/11/12 14:08:45;;;;;;;27.63;20.02;;;;;;;4.21;77.87;100425.03;10316068;28;20053;-67
2021/11/12 14:13:48;;;;;;;28.20;21.88;;;;;;;4.19;77.53;100423.44;10300578;28;20045;-65
2021/11/12 14:24:57;;;;;;;31.42;20.58;;;;;;;4.01;78.52;100430.47;10207588;28;20120;-67
2021/11/12 14:52:10;;;;;;;33.50;23.35;;;;;;;4.40;77.11;100403.00;10316904;28;20041;-65
2021/11/12 15:02:26;;;;;;;30.58;22.23;;;;;;;4.42;77.58;100377.41;10319255;28;20187;-65
2021/11/12 15:07:35;;;;;;;31.67;23.60;;;;;;;4.33;77.59;100389.28;10319187;28;20058;-65
2021/11/12 15:12:37;;;;;;;30.65;21.58;;;;;;;4.41;78.08;100383.59;10324090;28;20072;-66
2021/11/12 15:17:40;;;;;;;35.83;23.88;;;;;;;4.35;77.57;100370.75;10323998;28;20080;-65
2021/11/12 15:33:17;;;;;;;36.60;23.67;;;;;;;4.38;78.55;100386.41;10294916;28;20082;-72
2021/11/12 15:48:55;;;;;;;35.53;25.27;;;;;;;4.21;79.20;100388.13;10297932;28;20070;-72
2021/11/12 16:10:34;;;;;;;40.35;25.17;;;;;;;3.82;81.39;100383.97;10285422;28;21399;-71
2021/11/12 16:16:04;;;;;;;39.50;25.13;;;;;;;3.74;82.32;100383.53;10296438;28;20077;-72
2021/11/12 16:26:27;;;;;;;40.22;24.77;;;;;;;3.94;81.66;100381.66;10306353;28;20137;-71
2021/11/12 16:31:32;;;;;;;37.05;24.17;;;;;;;4.09;81.23;100388.78;10303211;28;20069;-71
2021/11/12 16:36:35;;;;;;;46.83;27.63;;;;;;;4.01;81.35;100380.44;10307087;28;20129;-71
2021/11/12 16:41:45;;;;;;;46.53;26.00;;;;;;;4.16;81.15;100382.25;10287483;28;20129;-71
2021/11/12 16:47:07;;;;;;;44.67;25.77;;;;;;;3.92;81.57;100381.75;10288567;28;20050;-72
2021/11/12 16:52:31;;;;;;;44.58;23.90;;;;;;;4.03;81.76;100382.03;10292675;28;20046;-69
2021/11/12 17:02:54;;;;;;;43.70;27.90;;;;;;;3.90;83.08;100388.84;10316720;28;20341;-71
2021/11/12 17:08:07;;;;;;;49.67;27.50;;;;;;;3.87;82.27;100386.38;10275412;28;20149;-72
2021/11/12 17:18:35;;;;;;;48.90;27.67;;;;;;;3.86;81.84;100388.16;10287185;28;20085;-74
2021/11/12 17:45:15;;;;;;;51.55;27.75;;;;;;;4.08;81.74;100389.69;10277376;28;20121;-70
2021/11/12 18:06:26;;;;;;;49.65;25.70;;;;;;;3.92;82.69;100379.09;10300497;28;20050;-69
2021/11/12 21:45:10;;;;;;;34.78;22.00;;;;;;;3.63;84.41;100296.31;10262258;28;20050;-72
2021/11/12 21:50:11;;;;;;;33.50;21.85;;;;;;;3.82;83.91;100281.28;10265414;28;20648;-72
2021/11/12 21:55:13;;;;;;;35.58;23.60;;;;;;;3.79;84.16;100283.22;10268841;28;20074;-70
2021/11/12 22:00:15;;;;;;;38.40;22.88;;;;;;;3.62;84.92;100277.03;10264557;28;20237;-72
2021/11/12 22:05:16;;;;;;;35.30;21.92;;;;;;;3.65;84.83;100271.63;10261602;28;20146;-71
2021/11/12 22:10:18;;;;;;;37.50;22.13;;;;;;;3.72;84.74;100266.88;10265398;28;20636;-73
2021/11/12 22:15:20;;;;;;;34.45;21.25;;;;;;;3.60;85.47;100252.56;10279805;28;20050;-72
2021/11/12 22:20:21;;;;;;;33.67;21.02;;;;;;;3.63;85.28;100248.94;10301632;28;20133;-71
2021/11/12 22:25:23;;;;;;;33.10;20.75;;;;;;;3.45;85.20;100254.22;10302429;28;20073;-74
2021/11/12 22:30:25;;;;;;;32.08;18.58;;;;;;;3.42;86.83;100253.50;10306893;28;20189;-71
2021/11/12 22:35:26;;;;;;;32.38;20.75;;;;;;;3.66;86.47;100256.66;10306540;28;20065;-71
2021/11/12 22:40:28;;;;;;;30.48;19.55;;;;;;;3.81;85.84;100255.88;10301741;28;20137;-72
2021/11/12 22:45:29;;;;;;;27.83;17.98;;;;;;;3.91;84.08;100272.03;10276873;28;20465;-72
2021/11/12 22:50:31;;;;;;;29.52;18.75;;;;;;;3.76;84.15;100275.50;10264605;28;20053;-70
2021/11/12 22:55:32;;;;;;;33.92;21.48;;;;;;;3.74;84.48;100269.44;10260245;28;20133;-72
2021/11/12 23:00:43;;;;;;;35.33;21.00;;;;;;;3.77;84.43;100264.88;10259617;28;20158;-71
2021/11/12 23:05:45;;;;;;;30.05;19.85;;;;;;;3.75;84.87;100255.34;10257748;28;20559;-72
2021/11/12 23:10:46;;;;;;;30.90;19.95;;;;;;;3.62;85.55;100256.00;10257892;28;20145;-71
2021/11/12 23:15:48;;;;;;;26.80;17.27;;;;;;;3.71;84.94;100260.78;10306065;23;20050;-61
2021/11/12 23:20:49;;;;;;;29.63;18.20;;;;;;;3.93;84.68;100258.81;10314474;28;20413;-62
2021/11/12 23:25:51;;;;;;;30.45;20.13;;;;;;;3.94;84.68;100249.97;10324118;28;20077;-63
2021/11/12 23:30:52;;;;;;;29.58;19.23;;;;;;;3.84;85.01;100254.88;10335435;28;20139;-61
2021/11/12 23:35:54;;;;;;;31.30;19.85;;;;;;;3.81;85.36;100255.88;10334774;28;20054;-61
2021/11/12 23:40:56;;;;;;;33.67;20.30;;;;;;;3.87;85.02;100265.22;10332630;28;20049;-61
2021/11/12 23:45:57;;;;;;;36.78;19.80;;;;;;;3.87;84.71;100260.84;10336981;28;20054;-61
2021/11/12 23:50:59;;;;;;;30.00;20.35;;;;;;;4.02;84.87;100271.47;10334170;28;20050;-63
2021/11/12 23:56:00;;;;;;;31.05;18.60;;;;;;;4.05;84.61;100273.94;10333329;28;20077;-59
